Time;durP1;ratioP1;P1;durP2;ratioP2;P2;SDS_P1;SDS_P2;PMS_P1;PMS_P2;Temp;Humidity;BMP_temperature;BMP_pressure;BME280_temperature;BME280_humidity;BME280_pressure;Samples;Min_cycle;Max_cycle;Signal;HPM_P1;HPM_P2
2021/05/10 00:01:46;;;;;;;3.67;1.50;;;17.70;66.40;;;;;;6218706;23;20402;-89
2021/05/10 00:04:15;;;;;;;2.50;1.30;;;17.90;65.60;;;;;;6217742;23;20032;-90
2021/05/10 00:06:41;;;;;;;3.20;1.30;;;17.80;64.80;;;;;;6218252;23;20099;-90
2021/05/10 00:09:08;;;;;;;2.50;1.38;;;17.90;64.00;;;;;;6221022;23;20024;-89
2021/05/10 00:11:35;;;;;;;1.25;1.05;;;17.90;64.00;;;;;;6223601;23;20060;-89
2021/05/10 00:14:09;;;;;;;1.77;1.30;;;17.90;63.50;;;;;;6223696;23;20025;-89
2021/05/10 00:16:36;;;;;;;4.28;1.67;;;17.80;62.90;;;;;;6198455;23;20095;-88
2021/05/10 00:19:04;;;;;;;3.45;1.50;;;17.80;61.90;;;;;;6221257;23;20021;-89
2021/05/10 00:21:30;;;;;;;2.65;1.10;;;17.80;61.90;;;;;;6218761;23;20021;-89
2021/05/10 00:23:57;;;;;;;3.38;1.58;;;17.70;61.60;;;;;;6217700;23;20100;-89
2021/05/10 00:26:23;;;;;;;3.45;1.20;;;17.60;61.80;;;;;;6218367;23;20074;-89
2021/05/10 00:28:50;;;;;;;2.30;1.20;;;17.40;64.20;;;;;;6192811;23;20025;-89
2021/05/10 00:31:19;;;;;;;3.63;1.63;;;17.10;66.40;;;;;;6218357;23;20029;-88
2021/05/10 00:33:45;;;;;;;2.08;1.48;;;16.80;68.60;;;;;;6217018;23;20036;-88
2021/05/10 00:36:12;;;;;;;2.72;1.30;;;16.60;68.50;;;;;;6217714;23;20024;-88
2021/05/10 00:38:38;;;;;;;3.72;1.38;;;16.40;72.10;;;;;;6218398;23;20020;-88
2021/05/10 00:41:05;;;;;;;2.22;1.30;;;16.20;74.20;;;;;;6218632;23;20349;-88
2021/05/10 00:43:32;;;;;;;2.58;1.50;;;16.00;73.10;;;;;;6218186;23;20025;-88
2021/05/10 00:45:59;;;;;;;1.15;1.05;;;16.00;70.20;;;;;;6219269;23;20031;-90
2021/05/10 00:48:26;;;;;;;1.90;1.67;;;16.20;68.20;;;;;;6219191;23;20017;-87
2021/05/10 00:50:52;;;;;;;2.50;1.17;;;16.30;66.90;;;;;;6216798;23;20021;-87
2021/05/10 00:53:20;;;;;;;4.70;1.80;;;16.40;66.20;;;;;;6192617;23;20082;-88
2021/05/10 00:55:47;;;;;;;2.03;1.40;;;16.40;69.00;;;;;;6218008;23;20086;-89
2021/05/10 00:58:14;;;;;;;2.63;1.45;;;16.20;72.10;;;;;;6218178;23;20087;-88
2021/05/10 01:00:42;;;;;;;4.43;1.67;;;16.00;76.10;;;;;;6218641;23;20043;-88
2021/05/10 01:03:09;;;;;;;2.70;1.48;;;15.90;76.90;;;;;;6216538;23;20020;-89
2021/05/10 01:05:38;;;;;;;3.45;1.30;;;15.80;77.50;;;;;;6217052;23;20032;-88
2021/05/10 01:08:06;;;;;;;3.75;1.70;;;15.70;73.10;;;;;;6217685;23;20027;-88
2021/05/10 01:10:34;;;;;;;2.78;1.33;;;15.70;74.00;;;;;;6218159;23;20024;-88
2021/05/10 01:13:02;;;;;;;3.17;1.40;;;15.70;72.20;;;;;;6217974;23;20408;-89
2021/05/10 01:15:30;;;;;;;2.38;1.40;;;15.70;72.00;;;;;;6218707;23;20025;-87
2021/05/10 01:17:58;;;;;;;2.17;1.10;;;16.00;68.60;;;;;;6219582;23;20416;-88
2021/05/10 01:20:26;;;;;;;2.67;1.77;;;16.00;70.70;;;;;;6231511;23;20032;-88
2021/05/10 01:22:55;;;;;;;2.72;1.52;;;15.90;77.70;;;;;;6232118;23;20096;-88
2021/05/10 01:25:32;;;;;;;3.20;1.40;;;15.70;81.20;;;;;;6234618;23;20025;-87
2021/05/10 01:27:59;;;;;;;3.75;1.58;;;15.60;83.50;;;;;;6208954;23;20087;-88
2021/05/10 01:30:31;;;;;;;2.13;1.38;;;15.40;86.30;;;;;;6238433;23;20020;-88
2021/05/10 01:32:59;;;;;;;5.70;1.60;;;15.30;88.20;;;;;;6233018;23;20085;-88
2021/05/10 01:35:28;;;;;;;4.35;1.75;;;15.00;92.00;;;;;;6229071;23;20341;-88
2021/05/10 01:37:56;;;;;;;2.42;1.75;;;14.90;95.10;;;;;;6220204;23;20269;-87
2021/05/10 01:40:23;;;;;;;3.65;1.73;;;14.70;98.50;;;;;;6218185;23;20116;-88
2021/05/10 01:42:50;;;;;;;2.10;1.90;;;14.60;98.80;;;;;;6216072;23;20020;-89
2021/05/10 01:45:17;;;;;;;2.38;1.60;;;14.40;99.90;;;;;;6217870;23;20056;-88
2021/05/10 01:47:43;;;;;;;4.38;2.35;;;14.30;99.90;;;;;;6218375;23;20090;-88
2021/05/10 01:50:20;;;;;;;5.57;1.60;;;14.20;99.90;;;;;;6217300;23;20024;-86
2021/05/10 01:52:48;;;;;;;5.88;1.63;;;14.10;99.90;;;;;;6217021;23;20438;-87
2021/05/10 01:55:16;;;;;;;1.83;1.55;;;14.10;99.90;;;;;;6217075;23;20117;-89
2021/05/10 01:57:49;;;;;;;4.20;2.10;;;14.10;99.90;;;;;;6218088;23;20486;-88
2021/05/10 02:00:19;;;;;;;4.53;1.50;;;14.10;99.90;;;;;;6215864;23;20024;-88
2021/05/10 02:02:46;;;;;;;3.13;1.80;;;14.00;99.90;;;;;;6216692;23;20024;-89
2021/05/10 02:05:17;;;;;;;2.60;1.90;;;14.00;99.90;;;;;;6216028;23;20021;-87
2021/05/10 02:07:49;;;;;;;6.82;2.13;;;13.90;99.90;;;;;;6217920;23;20035;-88
2021/05/10 02:10:19;;;;;;;2.40;1.73;;;13.90;99.90;;;;;;6217277;23;20083;-89
2021/05/10 02:12:53;;;;;;;3.63;1.80;;;14.00;99.90;;;;;;6216049;23;20085;-88
2021/05/10 02:15:19;;;;;;;6.15;1.92;;;14.00;99.90;;;;;;6217391;23;20028;-89
2021/05/10 02:17:47;;;;;;;2.65;1.88;;;13.90;99.90;;;;;;6216734;23;20086;-89
2021/05/10 02:20:15;;;;;;;2.20;1.77;;;13.80;99.90;;;;;;6217673;23;20427;-87
2021/05/10 02:23:05;;;;;;;2.10;1.90;;;13.70;99.90;;;;;;6217769;23;20363;-89
2021/05/10 02:25:35;;;;;;;1.95;1.80;;;13.70;99.90;;;;;;6217149;23;20091;-88
2021/05/10 02:28:03;;;;;;;2.05;1.67;;;13.60;99.90;;;;;;6216930;23;20021;-89
2021/05/10 02:30:31;;;;;;;3.22;1.90;;;13.50;99.90;;;;;;6216479;23;20025;-88
2021/05/10 02:32:58;;;;;;;2.85;1.80;;;13.50;99.90;;;;;;6215439;23;20454;-88
2021/05/10 02:35:25;;;;;;;6.82;2.00;;;13.50;99.90;;;;;;6216568;23;20024;-87
2021/05/10 02:37:53;;;;;;;2.40;2.20;;;13.40;99.90;;;;;;6217381;23;20070;-88
2021/05/10 02:40:20;;;;;;;4.13;1.90;;;13.30;99.90;;;;;;6216827;23;20103;-88
2021/05/10 02:42:48;;;;;;;1.90;1.73;;;13.20;99.90;;;;;;6216649;23;20288;-88
2021/05/10 02:45:16;;;;;;;2.33;2.00;;;13.10;99.90;;;;;;6215820;23;20023;-87
2021/05/10 02:47:43;;;;;;;4.32;2.30;;;13.10;99.90;;;;;;6217267;23;20027;-87
2021/05/10 02:50:12;;;;;;;4.32;2.10;;;13.00;99.90;;;;;;6215404;23;20059;-87
2021/05/10 02:52:39;;;;;;;3.15;2.00;;;13.00;99.90;;;;;;6217295;23;20388;-88
2021/05/10 02:55:07;;;;;;;5.97;2.20;;;12.90;99.90;;;;;;6217514;23;20024;-86
2021/05/10 02:57:36;;;;;;;3.78;2.00;;;12.90;99.90;;;;;;6216142;23;20029;-87
2021/05/10 03:00:07;;;;;;;2.53;2.10;;;12.90;99.90;;;;;;6215856;23;20020;-88
2021/05/10 03:02:35;;;;;;;10.77;2.45;;;12.90;99.90;;;;;;6218416;23;20404;-88
2021/05/10 03:05:04;;;;;;;3.47;2.05;;;13.00;99.90;;;;;;6220903;23;20055;-89
2021/05/10 03:07:32;;;;;;;4.20;2.10;;;13.00;99.90;;;;;;6230878;23;20016;-88
2021/05/10 03:10:02;;;;;;;2.63;2.03;;;13.00;99.90;;;;;;6239852;23;20013;-87
2021/05/10 03:12:29;;;;;;;3.10;1.85;;;12.90;99.90;;;;;;6208775;23;20036;-89
2021/05/10 03:14:57;;;;;;;3.75;1.88;;;12.90;99.90;;;;;;6229427;23;20080;-87
2021/05/10 03:17:23;;;;;;;2.33;1.95;;;13.00;99.90;;;;;;6219879;23;20025;-88
2021/05/10 03:19:51;;;;;;;5.30;2.10;;;13.00;99.90;;;;;;6217217;23;20016;-89
2021/05/10 03:22:18;;;;;;;6.93;2.13;;;13.20;99.90;;;;;;6217485;23;20025;-88
2021/05/10 03:24:44;;;;;;;6.15;2.35;;;13.30;99.90;;;;;;6217506;23;20442;-88
2021/05/10 03:27:11;;;;;;;2.55;2.10;;;13.40;99.90;;;;;;6217600;23;20020;-87
2021/05/10 03:29:38;;;;;;;4.15;2.03;;;13.40;99.90;;;;;;6215550;23;20043;-88
2021/05/10 03:32:05;;;;;;;3.28;2.08;;;13.50;99.90;;;;;;6217075;23;20412;-88
2021/05/10 03:34:31;;;;;;;4.47;2.33;;;13.50;99.90;;;;;;6216072;23;20031;-87
2021/05/10 03:36:58;;;;;;;2.97;1.80;;;13.60;99.90;;;;;;6217303;23;20029;-87
2021/05/10 03:39:24;;;;;;;5.07;2.10;;;13.60;99.90;;;;;;6215811;23;20377;-88
2021/05/10 03:41:51;;;;;;;3.40;2.25;;;13.70;99.90;;;;;;6216871;23;20016;-88
2021/05/10 03:44:17;;;;;;;2.92;2.05;;;13.70;99.90;;;;;;6215934;23;20024;-87
2021/05/10 03:46:44;;;;;;;9.40;1.95;;;13.70;99.90;;;;;;6217732;23;20043;-86
2021/05/10 03:49:10;;;;;;;3.08;1.80;;;14.00;99.90;;;;;;6216056;23;20324;-88
2021/05/10 03:51:37;;;;;;;3.88;1.73;;;14.40;99.90;;;;;;6217016;23;20082;-87
2021/05/10 03:54:03;;;;;;;3.78;1.50;;;14.70;96.40;;;;;;6217170;23;20412;-91
2021/05/10 03:56:30;;;;;;;3.13;1.58;;;15.40;88.30;;;;;;6217152;23;20091;-89
2021/05/10 03:58:57;;;;;;;4.40;1.42;;;15.90;81.00;;;;;;6216715;23;20021;-91
2021/05/10 04:01:24;;;;;;;4.50;1.77;;;16.00;79.80;;;;;;6218797;23;20329;-88
2021/05/10 04:13:35;;;;;;;3.10;1.35;;;16.30;73.50;;;;;;6216847;23;20048;-88
2021/05/10 04:14:24;;;;;;;2.08;1.23;;;16.30;73.60;;;;;;6218735;23;20092;-85
2021/05/10 04:16:55;;;;;;;4.05;1.60;;;16.40;72.70;;;;;;6219919;23;20439;-89
2021/05/10 04:19:21;;;;;;;2.38;1.30;;;16.60;70.70;;;;;;6220735;23;20347;-89
2021/05/10 04:21:48;;;;;;;3.25;1.40;;;16.60;69.10;;;;;;6216605;23;20099;-91
2021/05/10 04:24:14;;;;;;;3.35;1.60;;;16.70;67.90;;;;;;6216570;23;20123;-86
2021/05/10 04:26:43;;;;;;;2.92;1.77;;;16.70;67.20;;;;;;6216297;23;20096;-89
2021/05/10 04:29:18;;;;;;;3.58;1.60;;;16.80;66.70;;;;;;6227841;23;20101;-90
2021/05/10 04:31:46;;;;;;;3.47;1.40;;;16.80;66.60;;;;;;6210966;23;20021;-91
2021/05/10 04:34:15;;;;;;;4.43;1.60;;;16.90;65.20;;;;;;6239997;23;20140;-91
2021/05/10 04:36:41;;;;;;;2.47;1.48;;;17.00;65.10;;;;;;6238151;23;20012;-90
2021/05/10 04:39:08;;;;;;;4.15;1.98;;;17.00;68.50;;;;;;6232155;23;20016;-91
2021/05/10 04:41:34;;;;;;;2.42;1.35;;;16.90;66.30;;;;;;6220620;23;20077;-89
2021/05/10 04:44:01;;;;;;;2.30;1.50;;;17.10;62.40;;;;;;6218486;23;20059;-90
2021/05/10 04:46:27;;;;;;;2.80;1.80;;;17.30;62.40;;;;;;6219688;23;20103;-91
2021/05/10 04:48:54;;;;;;;4.20;2.00;;;17.30;63.00;;;;;;6223288;23;20072;-91
2021/05/10 04:51:21;;;;;;;2.15;1.40;;;17.30;63.70;;;;;;6219991;23;20332;-90
2021/05/10 04:53:47;;;;;;;4.97;1.45;;;17.40;63.10;;;;;;6221003;23;20025;-90
2021/05/10 04:56:17;;;;;;;3.08;1.83;;;17.40;62.50;;;;;;6223189;23;20024;-89
2021/05/10 04:58:44;;;;;;;4.25;1.98;;;17.50;64.20;;;;;;6221617;23;20016;-89
2021/05/10 05:01:14;;;;;;;3.80;1.45;;;17.40;63.50;;;;;;6222721;23;20017;-91
2021/05/10 05:03:41;;;;;;;5.15;1.30;;;17.40;67.40;;;;;;6198667;23;20030;-89
2021/05/10 05:06:11;;;;;;;3.30;1.23;;;17.40;63.60;;;;;;6207764;23;20017;-91
2021/05/10 05:08:38;;;;;;;2.28;1.70;;;17.40;64.50;;;;;;6233246;23;20356;-90
2021/05/10 05:11:07;;;;;;;3.65;1.55;;;17.40;65.50;;;;;;6181548;23;20028;-90
2021/05/10 05:13:34;;;;;;;2.08;1.30;;;17.30;67.00;;;;;;6240031;23;20012;-91
2021/05/10 05:16:00;;;;;;;3.67;1.63;;;17.30;69.70;;;;;;6234094;23;20016;-91
2021/05/10 05:18:28;;;;;;;4.35;1.60;;;17.30;71.90;;;;;;6230537;23;20084;-90
2021/05/10 05:20:55;;;;;;;6.03;1.52;;;17.30;69.40;;;;;;6222423;23;20016;-90
2021/05/10 05:23:24;;;;;;;3.40;1.55;;;17.30;67.20;;;;;;6223744;23;20036;-89
2021/05/10 05:26:02;;;;;;;4.53;1.70;;;17.40;65.40;;;;;;6220114;23;20146;-91
2021/05/10 05:28:35;;;;;;;2.20;1.52;;;17.50;65.10;;;;;;6218255;23;20012;-90
2021/05/10 05:31:02;;;;;;;2.78;1.58;;;17.50;67.40;;;;;;6220846;23;20024;-90
2021/05/10 05:33:29;;;;;;;6.85;1.90;;;17.60;65.20;;;;;;6221484;23;20017;-91
2021/05/10 05:35:59;;;;;;;6.72;1.70;;;17.70;65.20;;;;;;6221389;23;20083;-91
2021/05/10 05:38:36;;;;;;;7.97;1.80;;;17.70;67.10;;;;;;6222034;23;20024;-91
2021/05/10 05:41:03;;;;;;;5.28;1.95;;;17.70;68.80;;;;;;6229450;23;20009;-90
2021/05/10 05:43:30;;;;;;;6.25;1.50;;;17.60;68.00;;;;;;6233363;23;20020;-90
2021/05/10 05:45:56;;;;;;;4.45;1.88;;;17.50;68.00;;;;;;6236034;23;20078;-90
2021/05/10 05:48:25;;;;;;;5.32;1.92;;;17.60;66.00;;;;;;6237741;23;20035;-90
2021/05/10 05:50:52;;;;;;;2.17;1.73;;;17.60;69.50;;;;;;6237231;23;20008;-89
2021/05/10 05:53:21;;;;;;;3.63;1.60;;;17.70;66.30;;;;;;6237643;23;20107;-89
2021/05/10 05:55:49;;;;;;;3.80;1.40;;;17.90;68.40;;;;;;6236424;23;20012;-91
2021/05/10 05:58:18;;;;;;;3.38;1.88;;;17.90;67.80;;;;;;6226014;23;20028;-90
2021/05/10 06:00:46;;;;;;;5.65;1.63;;;18.00;66.30;;;;;;6233498;23;20019;-87
2021/05/10 06:03:15;;;;;;;3.00;1.58;;;18.00;67.40;;;;;;6231152;23;20037;-90
2021/05/10 06:05:41;;;;;;;3.70;1.40;;;18.00;71.80;;;;;;6234838;23;20020;-91
2021/05/10 06:08:08;;;;;;;3.70;1.55;;;18.10;70.10;;;;;;6235961;23;20151;-90
2021/05/10 06:10:34;;;;;;;4.20;1.42;;;18.20;66.40;;;;;;6237361;23;20076;-87
2021/05/10 06:13:01;;;;;;;4.57;1.50;;;18.40;65.10;;;;;;6230721;23;20021;-90
2021/05/10 06:15:29;;;;;;;5.85;1.40;;;18.40;65.30;;;;;;6223799;23;20044;-88
2021/05/10 06:17:56;;;;;;;3.05;1.77;;;18.50;66.30;;;;;;6217246;23;20027;-86
2021/05/10 06:20:26;;;;;;;5.38;1.67;;;18.60;69.60;;;;;;6217699;23;20020;-86
2021/05/10 06:22:53;;;;;;;6.45;1.88;;;18.70;67.90;;;;;;6217940;23;20021;-89
2021/05/10 06:25:20;;;;;;;4.60;1.52;;;18.80;65.30;;;;;;6219166;23;20028;-90
2021/05/10 06:27:48;;;;;;;2.42;1.65;;;18.90;66.40;;;;;;6217922;23;20036;-89
2021/05/10 06:30:16;;;;;;;5.72;1.60;;;19.00;67.40;;;;;;6217349;23;20029;-90
2021/05/10 06:32:43;;;;;;;4.80;1.40;;;19.20;67.20;;;;;;6218542;23;20454;-87
2021/05/10 06:35:10;;;;;;;4.75;1.75;;;19.20;72.60;;;;;;6216424;23;20052;-87
2021/05/10 06:37:37;;;;;;;2.42;1.48;;;19.40;69.10;;;;;;6216325;23;20463;-87
2021/05/10 06:40:04;;;;;;;4.97;1.42;;;19.60;69.50;;;;;;6219765;23;20058;-86
2021/05/10 06:42:32;;;;;;;3.88;1.70;;;19.60;70.70;;;;;;6217487;23;20039;-86
2021/05/10 06:45:01;;;;;;;4.82;1.70;;;19.60;74.20;;;;;;6218547;23;20491;-86
2021/05/10 06:47:28;;;;;;;7.57;2.15;;;19.70;75.30;;;;;;6212953;23;20336;-85
2021/05/10 06:49:57;;;;;;;7.15;2.15;;;19.90;72.00;;;;;;6216697;23;20025;-87
2021/05/10 06:52:23;;;;;;;5.63;2.15;;;20.00;86.40;;;;;;6219384;23;20024;-88
2021/05/10 06:54:50;;;;;;;3.65;1.77;;;20.00;84.10;;;;;;6216829;23;20032;-89
2021/05/10 06:57:17;;;;;;;6.40;2.00;;;20.10;76.50;;;;;;6217403;23;20029;-88
2021/05/10 06:59:44;;;;;;;6.20;2.22;;;20.20;68.80;;;;;;6215146;23;20016;-87
2021/05/10 07:02:12;;;;;;;6.13;1.60;;;20.20;74.50;;;;;;6215268;23;20043;-87
2021/05/10 07:04:38;;;;;;;4.82;1.70;;;20.30;65.80;;;;;;6216598;23;20273;-87
2021/05/10 07:07:05;;;;;;;4.80;1.75;;;20.60;63.70;;;;;;6216275;23;20020;-88
2021/05/10 07:09:31;;;;;;;5.43;1.42;;;20.80;63.60;;;;;;6217126;23;20272;-87
2021/05/10 07:12:04;;;;;;;5.20;1.88;;;21.10;62.20;;;;;;6217391;23;20107;-88
2021/05/10 07:14:31;;;;;;;4.30;1.67;;;21.20;65.10;;;;;;6215868;23;20087;-89
2021/05/10 07:17:00;;;;;;;4.32;1.70;;;21.50;59.20;;;;;;6217185;23;20455;-89
2021/05/10 07:19:27;;;;;;;3.03;1.42;;;22.20;58.70;;;;;;6216412;23;20013;-89
2021/05/10 07:21:54;;;;;;;3.83;1.35;;;22.90;63.00;;;;;;6217890;23;20078;-89
2021/05/10 07:24:20;;;;;;;4.65;1.35;;;23.40;57.00;;;;;;6215249;23;20039;-89
2021/05/10 07:26:49;;;;;;;4.45;1.40;;;24.10;58.00;;;;;;6215721;23;20043;-89
2021/05/10 07:29:19;;;;;;;3.38;1.30;;;24.60;55.60;;;;;;6229480;23;20020;-90
2021/05/10 07:31:45;;;;;;;4.22;1.40;;;24.70;54.80;;;;;;6230438;23;20024;-89
2021/05/10 07:34:15;;;;;;;6.53;1.83;;;25.30;54.20;;;;;;6234907;23;20068;-88
2021/05/10 07:36:42;;;;;;;9.38;1.70;;;25.70;56.20;;;;;;6227069;23;20020;-86
2021/05/10 07:39:11;;;;;;;3.95;1.58;;;26.30;52.40;;;;;;6225045;23;20021;-88
2021/05/10 07:41:39;;;;;;;3.85;1.40;;;26.80;47.80;;;;;;6218603;23;20036;-89
2021/05/10 07:44:07;;;;;;;7.25;2.08;;;26.70;49.60;;;;;;6217100;23;20043;-88
2021/05/10 07:46:35;;;;;;;3.40;1.48;;;26.50;49.20;;;;;;6217046;23;20381;-89
2021/05/10 07:49:02;;;;;;;4.22;1.60;;;26.30;50.10;;;;;;6216490;23;20516;-89
2021/05/10 07:51:29;;;;;;;8.05;2.20;;;25.60;50.50;;;;;;6215940;23;20079;-88
2021/05/10 07:53:56;;;;;;;4.10;1.45;;;25.30;51.80;;;;;;6191223;23;20079;-86
2021/05/10 07:56:26;;;;;;;2.42;1.38;;;24.70;53.50;;;;;;6217193;23;20039;-89
2021/05/10 07:58:55;;;;;;;4.13;1.67;;;24.10;53.60;;;;;;6216953;23;20087;-88
2021/05/10 08:01:21;;;;;;;9.13;2.67;;;23.50;55.20;;;;;;6216552;23;20028;-88
2021/05/10 08:03:50;;;;;;;7.15;1.60;;;23.90;57.00;;;;;;6218348;23;20021;-88
2021/05/10 08:06:17;;;;;;;3.63;1.60;;;24.40;53.50;;;;;;6216511;23;20307;-90
2021/05/10 08:08:45;;;;;;;3.08;1.85;;;25.20;55.40;;;;;;6218951;23;20017;-91
2021/05/10 08:11:11;;;;;;;8.15;2.65;;;25.90;51.70;;;;;;6221649;23;20336;-91
2021/05/10 08:13:38;;;;;;;2.97;1.70;;;27.10;53.40;;;;;;6217943;23;20363;-89
2021/05/10 08:16:07;;;;;;;3.75;1.42;;;27.90;47.90;;;;;;6217661;23;20046;-89
2021/05/10 08:18:41;;;;;;;4.28;1.30;;;27.80;46.20;;;;;;6217502;23;20091;-88
2021/05/10 08:21:09;;;;;;;3.75;1.15;;;27.60;46.10;;;;;;6217878;23;20021;-88
2021/05/10 08:23:36;;;;;;;7.32;1.50;;;26.90;48.20;;;;;;6216393;23;20036;-89
2021/05/10 08:26:02;;;;;;;7.03;2.03;;;25.90;51.00;;;;;;6216142;23;20021;-87
2021/05/10 08:28:31;;;;;;;5.65;2.22;;;25.00;52.10;;;;;;6219275;23;20020;-91
2021/05/10 08:30:57;;;;;;;6.35;1.83;;;24.50;52.70;;;;;;6220398;23;20035;-90
2021/05/10 08:33:24;;;;;;;5.40;1.98;;;24.00;54.10;;;;;;6219970;23;20055;-92
2021/05/10 08:35:51;;;;;;;5.93;2.20;;;23.30;55.60;;;;;;6219798;23;20043;-91
2021/05/10 08:38:18;;;;;;;8.80;2.67;;;22.90;59.40;;;;;;6220792;23;20028;-90
2021/05/10 08:40:44;;;;;;;9.32;4.30;;;22.80;59.20;;;;;;6221732;23;20464;-91
2021/05/10 08:43:19;;;;;;;10.70;2.55;;;22.70;60.20;;;;;;6221256;23;20012;-90
2021/05/10 08:45:50;;;;;;;3.03;1.40;;;22.70;61.70;;;;;;6219614;23;20075;-89
2021/05/10 08:48:16;;;;;;;2.60;1.33;;;23.10;59.30;;;;;;6219520;23;20028;-87
2021/05/10 08:50:45;;;;;;;8.52;1.73;;;23.10;58.60;;;;;;6220583;23;20092;-90
2021/05/10 08:53:13;;;;;;;3.20;1.80;;;23.10;58.10;;;;;;6194499;23;20482;-92
2021/05/10 08:55:40;;;;;;;4.68;1.40;;;23.00;61.40;;;;;;6222687;23;20043;-94
2021/05/10 08:58:13;;;;;;;4.32;1.63;;;22.90;61.70;;;;;;6224266;23;20024;-92
2021/05/10 09:00:53;;;;;;;4.22;1.70;;;23.00;62.20;;;;;;6195003;23;20416;-91
2021/05/10 09:03:19;;;;;;;4.63;1.50;;;23.20;63.30;;;;;;6222232;23;20086;-92
2021/05/10 09:05:50;;;;;;;4.65;1.70;;;23.40;60.40;;;;;;6219464;23;20076;-91
2021/05/10 09:08:17;;;;;;;1.40;1.30;;;23.50;59.90;;;;;;6219176;23;20486;-91
2021/05/10 09:11:07;;;;;;;4.38;1.77;;;23.70;61.80;;;;;;6222120;23;20123;-91
2021/05/10 09:13:39;;;;;;;4.90;1.60;;;23.90;57.30;;;;;;6221882;23;20039;-89
2021/05/10 09:16:06;;;;;;;3.72;1.88;;;24.10;55.30;;;;;;6225392;23;20040;-90
2021/05/10 09:18:39;;;;;;;4.80;1.45;;;24.40;56.10;;;;;;6223779;23;20677;-89
2021/05/10 09:21:10;;;;;;;4.82;1.40;;;24.80;57.30;;;;;;6224226;23;20016;-86
2021/05/10 09:23:58;;;;;;;4.22;1.70;;;25.50;57.40;;;;;;6223381;23;20096;-89
2021/05/10 09:26:35;;;;;;;4.85;1.60;;;26.50;52.40;;;;;;6220709;23;20447;-86
2021/05/10 09:29:02;;;;;;;6.22;1.38;;;27.20;53.70;;;;;;6220525;23;20017;-88
2021/05/10 09:31:30;;;;;;;5.43;1.50;;;27.90;49.70;;;;;;6222059;23;20035;-89
2021/05/10 09:33:56;;;;;;;4.13;1.20;;;28.50;49.10;;;;;;6218315;23;20021;-90
2021/05/10 09:36:35;;;;;;;2.25;1.30;;;29.30;46.70;;;;;;6216631;23;20025;-89
2021/05/10 09:39:08;;;;;;;6.05;1.60;;;29.30;45.50;;;;;;6217453;23;20379;-91
2021/05/10 09:42:02;;;;;;;4.28;1.30;;;29.00;46.90;;;;;;6217537;23;20024;-90
2021/05/10 09:44:42;;;;;;;1.88;1.10;;;29.10;48.20;;;;;;6217214;23;20420;-88
2021/05/10 09:47:21;;;;;;;5.57;1.70;;;29.50;45.60;;;;;;6218002;23;20024;-89
2021/05/10 09:49:50;;;;;;;2.67;1.30;;;29.70;44.10;;;;;;6219344;23;20036;-89
2021/05/10 09:52:17;;;;;;;3.13;1.55;;;29.10;44.10;;;;;;6218926;23;20078;-91
2021/05/10 09:54:53;;;;;;;7.43;1.80;;;28.80;43.90;;;;;;6227809;23;20031;-90
2021/05/10 09:57:22;;;;;;;5.78;1.23;;;28.90;45.10;;;;;;6229350;23;20028;-90
2021/05/10 10:00:14;;;;;;;1.95;1.17;;;28.50;46.50;;;;;;6224099;23;20017;-90
2021/05/10 10:02:44;;;;;;;5.78;1.45;;;27.90;48.00;;;;;;6229199;23;20038;-89
2021/05/10 10:05:14;;;;;;;6.38;1.67;;;26.90;50.10;;;;;;6231922;23;20039;-87
2021/05/10 10:07:42;;;;;;;6.53;1.63;;;26.30;51.40;;;;;;6221309;23;20139;-88
2021/05/10 10:10:09;;;;;;;2.22;1.35;;;25.80;52.50;;;;;;6222890;23;20036;-90
2021/05/10 10:12:36;;;;;;;2.13;1.40;;;25.90;52.60;;;;;;6218947;23;20087;-87
2021/05/10 10:15:03;;;;;;;4.97;1.40;;;25.80;52.30;;;;;;6217564;23;20025;-90
2021/05/10 10:17:32;;;;;;;6.90;1.90;;;25.60;54.10;;;;;;6219514;23;20032;-89
2021/05/10 10:20:04;;;;;;;6.05;1.40;;;25.60;54.60;;;;;;6199645;23;20099;-90
2021/05/10 10:22:34;;;;;;;6.93;1.60;;;26.00;53.20;;;;;;6199016;23;20020;-88
2021/05/10 10:25:05;;;;;;;11.68;1.38;;;26.30;53.40;;;;;;6222460;23;20323;-90
2021/05/10 10:27:53;;;;;;;3.17;1.45;;;26.80;51.40;;;;;;6219025;23;20051;-89
2021/05/10 10:30:24;;;;;;;2.75;1.17;;;27.40;51.00;;;;;;6219824;23;20024;-90
2021/05/10 10:32:55;;;;;;;3.55;1.40;;;27.80;50.50;;;;;;6218867;23;20055;-90
2021/05/10 10:35:43;;;;;;;5.30;1.48;;;28.30;48.80;;;;;;6218377;23;20090;-88
2021/05/10 10:38:10;;;;;;;4.80;1.40;;;28.10;48.90;;;;;;6217793;23;20094;-89
2021/05/10 10:40:39;;;;;;;3.72;1.15;;;27.40;49.40;;;;;;6217405;23;20025;-88
2021/05/10 10:43:21;;;;;;;4.32;1.33;;;27.00;51.10;;;;;;6215935;23;20063;-90
2021/05/10 10:46:20;;;;;;;3.95;0.90;;;26.30;52.10;;;;;;6217016;23;20032;-88
2021/05/10 10:48:48;;;;;;;2.95;1.10;;;25.50;52.80;;;;;;6219179;23;20078;-86
2021/05/10 10:51:18;;;;;;;4.70;1.30;;;25.00;54.80;;;;;;6223808;23;20064;-88
2021/05/10 10:53:55;;;;;;;3.03;1.10;;;24.80;56.00;;;;;;6232268;23;20024;-89
2021/05/10 10:56:47;;;;;;;3.72;1.00;;;24.30;55.50;;;;;;6231131;23;20012;-87
2021/05/10 10:59:25;;;;;;;2.80;1.10;;;24.30;55.80;;;;;;6238074;23;20027;-88
2021/05/10 11:01:53;;;;;;;2.05;1.00;;;23.90;55.50;;;;;;6229511;23;20024;-88
2021/05/10 11:04:28;;;;;;;2.72;1.10;;;23.50;57.10;;;;;;6228885;23;20021;-87
2021/05/10 11:06:55;;;;;;;1.80;1.15;;;23.20;59.10;;;;;;6217976;23;20050;-88
2021/05/10 11:09:47;;;;;;;3.13;0.90;;;22.80;60.40;;;;;;6218670;23;20052;-87
2021/05/10 11:12:51;;;;;;;5.25;1.30;;;22.60;60.70;;;;;;6216386;23;20063;-86
2021/05/10 11:15:42;;;;;;;2.70;1.10;;;22.30;62.10;;;;;;6217456;23;20071;-86
2021/05/10 11:18:08;;;;;;;6.65;1.13;;;22.00;62.60;;;;;;6200123;23;20021;-84
2021/05/10 11:20:44;;;;;;;2.72;1.10;;;21.60;64.10;;;;;;6223262;23;20027;-89
2021/05/10 11:23:24;;;;;;;2.70;1.00;;;21.40;66.20;;;;;;6227391;23;20035;-90
2021/05/10 11:25:55;;;;;;;4.45;1.10;;;21.20;67.20;;;;;;6220662;23;20024;-89
2021/05/10 11:28:27;;;;;;;7.43;1.30;;;20.90;69.40;;;;;;6218817;23;20120;-90
2021/05/10 11:31:16;;;;;;;4.78;1.10;;;20.70;68.90;;;;;;6219791;23;20011;-88
2021/05/10 11:33:54;;;;;;;4.18;1.10;;;20.60;72.70;;;;;;6220074;23;20020;-90
2021/05/10 11:36:25;;;;;;;1.55;0.80;;;20.40;73.20;;;;;;6222129;23;20021;-91
2021/05/10 11:38:57;;;;;;;2.00;1.20;;;20.30;76.40;;;;;;6220186;23;20090;-88
2021/05/10 11:41:41;;;;;;;2.67;1.10;;;20.30;75.30;;;;;;6222993;23;20040;-85
2021/05/10 11:44:21;;;;;;;3.42;1.52;;;20.10;75.20;;;;;;6221302;23;20071;-89
2021/05/10 11:46:50;;;;;;;2.17;1.10;;;20.10;79.60;;;;;;6219335;23;20031;-89
2021/05/10 11:49:26;;;;;;;4.75;1.10;;;20.10;82.70;;;;;;6218927;23;20021;-90
2021/05/10 11:51:54;;;;;;;2.45;1.10;;;20.00;79.00;;;;;;6219414;23;20317;-90
2021/05/10 11:54:22;;;;;;;2.33;0.93;;;19.90;81.10;;;;;;6218981;23;20021;-88
2021/05/10 11:56:55;;;;;;;2.58;1.10;;;19.90;86.70;;;;;;6220473;23;20043;-89
2021/05/10 12:02:01;;;;;;;9.88;1.00;;;19.80;88.90;;;;;;6221056;23;20098;-90
2021/05/10 12:04:30;;;;;;;5.22;1.13;;;19.80;85.80;;;;;;6226508;23;20035;-91
2021/05/10 12:06:58;;;;;;;2.50;0.90;;;19.80;87.20;;;;;;6220692;23;20017;-88
2021/05/10 12:09:31;;;;;;;1.52;0.98;;;19.70;88.80;;;;;;6218233;23;20016;-92
2021/05/10 12:12:05;;;;;;;1.13;0.80;;;19.50;82.90;;;;;;6220881;23;20036;-92
2021/05/10 12:14:33;;;;;;;3.25;1.17;;;19.40;88.40;;;;;;6218657;23;20020;-87
2021/05/10 12:17:04;;;;;;;2.55;0.88;;;19.40;87.10;;;;;;6219746;23;20020;-86
2021/05/10 12:19:54;;;;;;;3.47;1.02;;;19.50;87.30;;;;;;6218450;23;20016;-91
2021/05/10 12:22:24;;;;;;;3.58;1.30;;;19.70;87.80;;;;;;6219726;23;20021;-89
2021/05/10 12:25:03;;;;;;;1.10;0.70;;;19.80;83.50;;;;;;6220624;23;20021;-90
2021/05/10 12:27:41;;;;;;;3.10;1.27;;;20.00;82.90;;;;;;6220056;23;20075;-90
2021/05/10 12:30:18;;;;;;;8.20;1.30;;;20.10;86.10;;;;;;6219460;23;20080;-87
2021/05/10 12:32:51;;;;;;;2.53;1.02;;;20.40;80.30;;;;;;6218529;23;20130;-90
2021/05/10 12:35:34;;;;;;;3.03;0.95;;;20.50;81.50;;;;;;6220149;23;20367;-90
2021/05/10 12:38:01;;;;;;;4.05;0.80;;;20.70;77.40;;;;;;6219102;23;20020;-92
2021/05/10 12:40:40;;;;;;;3.13;1.05;;;20.70;77.50;;;;;;6220045;23;20020;-92
2021/05/10 12:43:23;;;;;;;2.90;0.75;;;20.70;75.20;;;;;;6221335;23;20020;-89
2021/05/10 12:45:59;;;;;;;;;;;20.70;76.50;;;;;;6220553;23;20048;-91
2021/05/10 12:48:30;;;;;;;3.03;0.70;;;20.80;74.90;;;;;;6220881;23;19942;-91
2021/05/10 12:51:05;;;;;;;2.00;0.90;;;20.80;74.40;;;;;;6220780;23;20099;-92
2021/05/10 12:53:37;;;;;;;1.27;0.60;;;20.50;77.70;;;;;;6220317;23;20021;-91
2021/05/10 12:56:07;;;;;;;4.07;1.20;;;20.50;77.60;;;;;;6223411;23;20087;-91
2021/05/10 12:58:43;;;;;;;3.63;1.05;;;20.30;77.00;;;;;;6220420;23;20024;-91
2021/05/10 13:01:11;;;;;;;5.00;0.77;;;20.20;75.30;;;;;;6219379;23;20024;-90
2021/05/10 13:03:41;;;;;;;5.43;1.10;;;20.40;78.20;;;;;;6226347;23;20020;-92
2021/05/10 13:06:08;;;;;;;1.85;0.57;;;20.30;74.20;;;;;;6220661;23;20415;-90
2021/05/10 13:08:53;;;;;;;1.63;0.70;;;20.20;74.30;;;;;;6219524;23;20020;-89
2021/05/10 13:11:44;;;;;;;2.42;0.77;;;20.10;75.20;;;;;;6219772;23;20055;-89
2021/05/10 13:14:28;;;;;;;0.50;0.50;;;20.00;75.60;;;;;;6221092;23;20444;-89